sensor_id;sensor_type;location;lat;lon;timestamp;P1;durP1;ratioP1;P2;durP2;ratioP2
27744;SDS011;61387;48.112;8.616;2023-03-12T00:00:42;7.50;;;3.80;;
27744;SDS011;61387;48.112;8.616;2023-03-12T00:03:08;7.17;;;3.23;;
27744;SDS011;61387;48.112;8.616;2023-03-12T00:05:38;6.83;;;3.17;;
27744;SDS011;61387;48.112;8.616;2023-03-12T00:08:04;8.63;;;3.43;;
27744;SDS011;61387;48.112;8.616;2023-03-12T00:10:30;7.17;;;3.53;;
27744;SDS011;61387;48.112;8.616;2023-03-12T00:12:56;8.57;;;3.70;;
27744;SDS011;61387;48.112;8.616;2023-03-12T00:15:22;9.03;;;3.47;;
27744;SDS011;61387;48.112;8.616;2023-03-12T00:17:48;6.40;;;3.40;;
27744;SDS011;61387;48.112;8.616;2023-03-12T00:20:14;6.17;;;3.57;;
27744;SDS011;61387;48.112;8.616;2023-03-12T00:22:40;8.53;;;3.60;;
27744;SDS011;61387;48.112;8.616;2023-03-12T00:25:06;7.47;;;3.40;;
27744;SDS011;61387;48.112;8.616;2023-03-12T00:27:36;8.70;;;3.40;;
27744;SDS011;61387;48.112;8.616;2023-03-12T00:30:03;7.10;;;3.53;;
27744;SDS011;61387;48.112;8.616;2023-03-12T00:32:31;6.90;;;3.63;;
27744;SDS011;61387;48.112;8.616;2023-03-12T00:34:57;7.40;;;3.47;;
27744;SDS011;61387;48.112;8.616;2023-03-12T00:37:23;8.37;;;4.07;;
27744;SDS011;61387;48.112;8.616;2023-03-12T00:39:49;8.10;;;3.50;;
27744;SDS011;61387;48.112;8.616;2023-03-12T00:42:15;11.23;;;4.10;;
27744;SDS011;61387;48.112;8.616;2023-03-12T00:44:41;8.07;;;3.60;;
27744;SDS011;61387;48.112;8.616;2023-03-12T00:47:08;7.80;;;4.10;;
27744;SDS011;61387;48.112;8.616;2023-03-12T00:49:34;6.80;;;3.50;;
27744;SDS011;61387;48.112;8.616;2023-03-12T00:51:59;8.10;;;3.85;;
27744;SDS011;61387;48.112;8.616;2023-03-12T00:54:25;10.00;;;4.20;;
27744;SDS011;61387;48.112;8.616;2023-03-12T00:56:51;8.73;;;3.87;;
27744;SDS011;61387;48.112;8.616;2023-03-12T00:59:17;8.47;;;4.17;;
27744;SDS011;61387;48.112;8.616;2023-03-12T01:01:43;8.13;;;3.90;;
27744;SDS011;61387;48.112;8.616;2023-03-12T01:04:09;7.50;;;3.77;;
27744;SDS011;61387;48.112;8.616;2023-03-12T01:06:34;11.60;;;5.10;;
27744;SDS011;61387;48.112;8.616;2023-03-12T01:09:01;14.53;;;6.10;;
27744;SDS011;61387;48.112;8.616;2023-03-12T01:11:29;12.40;;;5.80;;
27744;SDS011;61387;48.112;8.616;2023-03-12T01:13:56;12.80;;;5.30;;
27744;SDS011;61387;48.112;8.616;2023-03-12T01:16:22;9.43;;;4.30;;
27744;SDS011;61387;48.112;8.616;2023-03-12T01:18:52;14.23;;;5.77;;
27744;SDS011;61387;48.112;8.616;2023-03-12T01:21:17;11.60;;;6.60;;
27744;SDS011;61387;48.112;8.616;2023-03-12T01:23:43;14.17;;;6.57;;
27744;SDS011;61387;48.112;8.616;2023-03-12T01:26:10;10.90;;;4.83;;
27744;SDS011;61387;48.112;8.616;2023-03-12T01:28:36;14.27;;;6.03;;
27744;SDS011;61387;48.112;8.616;2023-03-12T01:31:20;8.83;;;5.17;;
27744;SDS011;61387;48.112;8.616;2023-03-12T01:33:49;11.40;;;5.53;;
27744;SDS011;61387;48.112;8.616;2023-03-12T01:36:23;11.10;;;5.17;;
27744;SDS011;61387;48.112;8.616;2023-03-12T01:38:51;9.60;;;4.47;;
27744;SDS011;61387;48.112;8.616;2023-03-12T01:41:18;7.90;;;4.50;;
27744;SDS011;61387;48.112;8.616;2023-03-12T01:43:44;11.90;;;4.83;;
27744;SDS011;61387;48.112;8.616;2023-03-12T01:52:03;10.47;;;5.37;;
27744;SDS011;61387;48.112;8.616;2023-03-12T01:54:44;8.73;;;5.07;;
27744;SDS011;61387;48.112;8.616;2023-03-12T01:57:20;9.67;;;5.00;;
27744;SDS011;61387;48.112;8.616;2023-03-12T01:59:51;9.40;;;5.30;;
27744;SDS011;61387;48.112;8.616;2023-03-12T02:02:20;8.63;;;5.50;;
27744;SDS011;61387;48.112;8.616;2023-03-12T02:04:51;13.43;;;5.40;;
27744;SDS011;61387;48.112;8.616;2023-03-12T02:07:23;10.60;;;5.40;;
27744;SDS011;61387;48.112;8.616;2023-03-12T02:09:49;11.50;;;5.63;;
27744;SDS011;61387;48.112;8.616;2023-03-12T02:12:15;10.03;;;5.10;;
27744;SDS011;61387;48.112;8.616;2023-03-12T02:14:41;9.67;;;4.80;;
27744;SDS011;61387;48.112;8.616;2023-03-12T02:17:07;8.57;;;4.90;;
27744;SDS011;61387;48.112;8.616;2023-03-12T02:22:33;10.00;;;4.57;;
27744;SDS011;61387;48.112;8.616;2023-03-12T02:27:51;10.60;;;4.80;;
27744;SDS011;61387;48.112;8.616;2023-03-12T02:30:17;9.77;;;5.17;;
27744;SDS011;61387;48.112;8.616;2023-03-12T02:32:44;9.80;;;5.27;;
27744;SDS011;61387;48.112;8.616;2023-03-12T02:35:10;14.70;;;6.83;;
27744;SDS011;61387;48.112;8.616;2023-03-12T02:37:48;12.03;;;5.80;;
27744;SDS011;61387;48.112;8.616;2023-03-12T02:40:26;9.47;;;5.23;;
27744;SDS011;61387;48.112;8.616;2023-03-12T02:43:05;10.23;;;5.07;;
27744;SDS011;61387;48.112;8.616;2023-03-12T02:45:31;10.80;;;4.40;;
27744;SDS011;61387;48.112;8.616;2023-03-12T02:48:00;10.03;;;5.00;;
27744;SDS011;61387;48.112;8.616;2023-03-12T02:50:26;12.53;;;5.67;;
27744;SDS011;61387;48.112;8.616;2023-03-12T02:52:52;10.70;;;5.27;;
27744;SDS011;61387;48.112;8.616;2023-03-12T02:55:18;10.43;;;5.53;;
27744;SDS011;61387;48.112;8.616;2023-03-12T02:57:44;13.47;;;5.23;;
27744;SDS011;61387;48.112;8.616;2023-03-12T03:00:11;8.53;;;4.73;;
27744;SDS011;61387;48.112;8.616;2023-03-12T03:02:38;9.03;;;4.30;;
27744;SDS011;61387;48.112;8.616;2023-03-12T03:05:07;10.33;;;4.80;;
27744;SDS011;61387;48.112;8.616;2023-03-12T03:07:35;8.50;;;5.00;;
27744;SDS011;61387;48.112;8.616;2023-03-12T03:10:00;8.05;;;4.55;;
27744;SDS011;61387;48.112;8.616;2023-03-12T03:12:34;7.83;;;4.47;;
27744;SDS011;61387;48.112;8.616;2023-03-12T03:15:01;11.70;;;4.70;;
27744;SDS011;61387;48.112;8.616;2023-03-12T03:17:27;8.70;;;4.90;;
27744;SDS011;61387;48.112;8.616;2023-03-12T03:19:52;10.90;;;4.83;;
27744;SDS011;61387;48.112;8.616;2023-03-12T03:22:18;8.63;;;4.57;;
27744;SDS011;61387;48.112;8.616;2023-03-12T03:24:45;9.67;;;5.10;;
27744;SDS011;61387;48.112;8.616;2023-03-12T03:27:10;8.57;;;4.73;;
27744;SDS011;61387;48.112;8.616;2023-03-12T03:29:36;9.47;;;5.07;;
27744;SDS011;61387;48.112;8.616;2023-03-12T03:32:02;9.60;;;4.90;;
27744;SDS011;61387;48.112;8.616;2023-03-12T03:34:29;11.97;;;5.77;;
27744;SDS011;61387;48.112;8.616;2023-03-12T03:36:54;13.40;;;7.53;;
27744;SDS011;61387;48.112;8.616;2023-03-12T03:39:20;14.83;;;8.07;;
27744;SDS011;61387;48.112;8.616;2023-03-12T03:41:47;13.00;;;6.17;;
27744;SDS011;61387;48.112;8.616;2023-03-12T03:44:13;11.55;;;6.30;;
27744;SDS011;61387;48.112;8.616;2023-03-12T03:46:38;12.73;;;5.87;;
27744;SDS011;61387;48.112;8.616;2023-03-12T03:49:04;10.40;;;6.33;;
27744;SDS011;61387;48.112;8.616;2023-03-12T03:51:31;14.03;;;7.30;;
27744;SDS011;61387;48.112;8.616;2023-03-12T03:53:57;15.50;;;8.97;;
27744;SDS011;61387;48.112;8.616;2023-03-12T03:56:24;12.70;;;7.40;;
27744;SDS011;61387;48.112;8.616;2023-03-12T03:58:50;14.03;;;7.27;;
27744;SDS011;61387;48.112;8.616;2023-03-12T04:01:16;15.80;;;8.10;;
27744;SDS011;61387;48.112;8.616;2023-03-12T04:03:42;13.83;;;7.43;;
27744;SDS011;61387;48.112;8.616;2023-03-12T04:06:08;13.03;;;7.27;;
27744;SDS011;61387;48.112;8.616;2023-03-12T04:08:35;14.30;;;8.00;;
27744;SDS011;61387;48.112;8.616;2023-03-12T04:11:11;12.20;;;7.03;;
27744;SDS011;61387;48.112;8.616;2023-03-12T04:13:39;11.60;;;7.07;;
27744;SDS011;61387;48.112;8.616;2023-03-12T04:16:05;11.47;;;6.80;;
27744;SDS011;61387;48.112;8.616;2023-03-12T04:18:32;14.67;;;7.07;;
27744;SDS011;61387;48.112;8.616;2023-03-12T04:20:59;12.53;;;6.97;;
27744;SDS011;61387;48.112;8.616;2023-03-12T04:23:25;13.27;;;7.70;;
27744;SDS011;61387;48.112;8.616;2023-03-12T04:25:51;14.40;;;7.53;;
27744;SDS011;61387;48.112;8.616;2023-03-12T04:28:17;13.47;;;8.20;;
27744;SDS011;61387;48.112;8.616;2023-03-12T04:30:43;15.10;;;8.37;;
27744;SDS011;61387;48.112;8.616;2023-03-12T04:33:09;13.93;;;8.77;;
27744;SDS011;61387;48.112;8.616;2023-03-12T04:35:35;15.57;;;8.97;;
27744;SDS011;61387;48.112;8.616;2023-03-12T04:38:01;17.60;;;8.83;;
27744;SDS011;61387;48.112;8.616;2023-03-12T04:40:27;13.77;;;8.30;;
27744;SDS011;61387;48.112;8.616;2023-03-12T04:42:53;14.90;;;8.10;;
27744;SDS011;61387;48.112;8.616;2023-03-12T04:45:19;15.40;;;8.67;;
27744;SDS011;61387;48.112;8.616;2023-03-12T04:47:45;14.93;;;9.17;;
27744;SDS011;61387;48.112;8.616;2023-03-12T04:50:11;16.47;;;9.10;;
27744;SDS011;61387;48.112;8.616;2023-03-12T04:52:37;19.40;;;10.50;;
27744;SDS011;61387;48.112;8.616;2023-03-12T04:55:03;20.80;;;11.73;;
27744;SDS011;61387;48.112;8.616;2023-03-12T04:57:29;19.70;;;10.27;;
27744;SDS011;61387;48.112;8.616;2023-03-12T04:59:55;17.20;;;10.33;;
27744;SDS011;61387;48.112;8.616;2023-03-12T05:02:21;18.27;;;10.87;;
27744;SDS011;61387;48.112;8.616;2023-03-12T05:04:47;19.80;;;11.40;;
27744;SDS011;61387;48.112;8.616;2023-03-12T05:07:13;24.20;;;12.77;;
27744;SDS011;61387;48.112;8.616;2023-03-12T05:09:39;23.63;;;12.30;;
27744;SDS011;61387;48.112;8.616;2023-03-12T05:12:05;26.53;;;14.47;;
27744;SDS011;61387;48.112;8.616;2023-03-12T05:14:31;25.00;;;13.10;;
27744;SDS011;61387;48.112;8.616;2023-03-12T05:16:57;25.03;;;13.37;;
27744;SDS011;61387;48.112;8.616;2023-03-12T05:19:23;25.27;;;13.67;;
27744;SDS011;61387;48.112;8.616;2023-03-12T05:21:49;24.20;;;13.43;;
27744;SDS011;61387;48.112;8.616;2023-03-12T05:24:15;23.77;;;12.60;;
27744;SDS011;61387;48.112;8.616;2023-03-12T05:26:41;24.20;;;13.00;;
27744;SDS011;61387;48.112;8.616;2023-03-12T05:29:07;26.87;;;13.13;;
27744;SDS011;61387;48.112;8.616;2023-03-12T05:31:33;25.63;;;13.17;;
27744;SDS011;61387;48.112;8.616;2023-03-12T05:34:01;24.97;;;12.97;;
27744;SDS011;61387;48.112;8.616;2023-03-12T05:36:28;27.20;;;13.63;;
27744;SDS011;61387;48.112;8.616;2023-03-12T05:38:54;25.90;;;13.40;;
27744;SDS011;61387;48.112;8.616;2023-03-12T05:41:21;22.57;;;12.83;;
27744;SDS011;61387;48.112;8.616;2023-03-12T05:43:50;23.70;;;12.30;;
27744;SDS011;61387;48.112;8.616;2023-03-12T05:46:16;22.80;;;12.47;;
27744;SDS011;61387;48.112;8.616;2023-03-12T05:48:42;26.30;;;13.00;;
27744;SDS011;61387;48.112;8.616;2023-03-12T05:51:08;22.90;;;12.47;;
27744;SDS011;61387;48.112;8.616;2023-03-12T05:53:34;22.93;;;11.63;;
27744;SDS011;61387;48.112;8.616;2023-03-12T05:56:03;20.90;;;11.23;;
27744;SDS011;61387;48.112;8.616;2023-03-12T05:58:30;22.00;;;11.93;;
27744;SDS011;61387;48.112;8.616;2023-03-12T06:00:56;25.87;;;13.30;;
27744;SDS011;61387;48.112;8.616;2023-03-12T06:03:22;25.97;;;13.10;;
27744;SDS011;61387;48.112;8.616;2023-03-12T06:05:48;24.70;;;12.73;;
27744;SDS011;61387;48.112;8.616;2023-03-12T06:08:14;21.63;;;11.93;;
27744;SDS011;61387;48.112;8.616;2023-03-12T06:10:40;23.10;;;11.65;;
27744;SDS011;61387;48.112;8.616;2023-03-12T06:13:06;25.10;;;12.07;;
27744;SDS011;61387;48.112;8.616;2023-03-12T06:15:32;21.17;;;11.10;;
27744;SDS011;61387;48.112;8.616;2023-03-12T06:17:58;24.73;;;12.30;;
27744;SDS011;61387;48.112;8.616;2023-03-12T06:20:23;23.73;;;12.03;;
27744;SDS011;61387;48.112;8.616;2023-03-12T06:22:49;21.63;;;11.67;;
27744;SDS011;61387;48.112;8.616;2023-03-12T06:25:15;22.93;;;12.07;;
27744;SDS011;61387;48.112;8.616;2023-03-12T06:27:40;23.20;;;12.33;;
27744;SDS011;61387;48.112;8.616;2023-03-12T06:30:06;22.20;;;11.53;;
27744;SDS011;61387;48.112;8.616;2023-03-12T06:32:33;21.03;;;11.70;;
27744;SDS011;61387;48.112;8.616;2023-03-12T06:34:59;23.60;;;12.17;;
27744;SDS011;61387;48.112;8.616;2023-03-12T06:37:24;23.40;;;11.40;;
27744;SDS011;61387;48.112;8.616;2023-03-12T06:39:50;23.53;;;11.80;;
27744;SDS011;61387;48.112;8.616;2023-03-12T06:42:16;23.63;;;12.67;;
27744;SDS011;61387;48.112;8.616;2023-03-12T06:44:43;20.17;;;11.47;;
27744;SDS011;61387;48.112;8.616;2023-03-12T06:47:09;19.47;;;11.23;;
27744;SDS011;61387;48.112;8.616;2023-03-12T06:49:35;15.00;;;8.93;;
27744;SDS011;61387;48.112;8.616;2023-03-12T06:52:02;18.47;;;9.13;;
27744;SDS011;61387;48.112;8.616;2023-03-12T06:54:28;16.77;;;9.73;;
27744;SDS011;61387;48.112;8.616;2023-03-12T06:56:54;17.40;;;10.30;;
27744;SDS011;61387;48.112;8.616;2023-03-12T06:59:19;15.40;;;8.55;;
27744;SDS011;61387;48.112;8.616;2023-03-12T07:01:46;15.50;;;8.60;;
27744;SDS011;61387;48.112;8.616;2023-03-12T07:04:12;15.43;;;8.37;;
27744;SDS011;61387;48.112;8.616;2023-03-12T07:06:38;15.83;;;8.13;;
27744;SDS011;61387;48.112;8.616;2023-03-12T07:09:04;13.60;;;7.55;;
27744;SDS011;61387;48.112;8.616;2023-03-12T07:11:30;15.17;;;7.00;;
27744;SDS011;61387;48.112;8.616;2023-03-12T07:13:55;11.93;;;6.10;;
27744;SDS011;61387;48.112;8.616;2023-03-12T07:16:22;10.50;;;6.17;;
27744;SDS011;61387;48.112;8.616;2023-03-12T07:18:48;10.77;;;5.13;;
27744;SDS011;61387;48.112;8.616;2023-03-12T07:21:13;13.40;;;6.97;;
27744;SDS011;61387;48.112;8.616;2023-03-12T07:23:47;12.00;;;6.37;;
27744;SDS011;61387;48.112;8.616;2023-03-12T07:26:14;12.83;;;6.97;;
27744;SDS011;61387;48.112;8.616;2023-03-12T07:28:40;12.50;;;6.70;;
27744;SDS011;61387;48.112;8.616;2023-03-12T07:31:05;12.23;;;6.43;;
27744;SDS011;61387;48.112;8.616;2023-03-12T07:33:32;9.70;;;5.60;;
27744;SDS011;61387;48.112;8.616;2023-03-12T07:35:58;11.23;;;5.63;;
27744;SDS011;61387;48.112;8.616;2023-03-12T07:38:24;10.80;;;5.80;;
27744;SDS011;61387;48.112;8.616;2023-03-12T07:40:53;10.20;;;5.33;;
27744;SDS011;61387;48.112;8.616;2023-03-12T07:43:20;11.00;;;5.97;;
27744;SDS011;61387;48.112;8.616;2023-03-12T07:45:46;10.47;;;6.13;;
27744;SDS011;61387;48.112;8.616;2023-03-12T07:48:12;10.87;;;5.30;;
27744;SDS011;61387;48.112;8.616;2023-03-12T07:50:38;7.97;;;4.60;;
27744;SDS011;61387;48.112;8.616;2023-03-12T07:53:04;8.90;;;5.00;;
27744;SDS011;61387;48.112;8.616;2023-03-12T07:55:31;9.30;;;4.77;;
27744;SDS011;61387;48.112;8.616;2023-03-12T07:57:57;7.27;;;4.63;;
27744;SDS011;61387;48.112;8.616;2023-03-12T08:00:24;6.93;;;3.90;;
27744;SDS011;61387;48.112;8.616;2023-03-12T08:02:50;6.90;;;3.73;;
27744;SDS011;61387;48.112;8.616;2023-03-12T08:05:16;7.00;;;3.50;;
27744;SDS011;61387;48.112;8.616;2023-03-12T08:07:42;6.20;;;3.10;;
27744;SDS011;61387;48.112;8.616;2023-03-12T08:10:08;5.57;;;2.93;;
27744;SDS011;61387;48.112;8.616;2023-03-12T08:12:35;5.27;;;2.80;;
27744;SDS011;61387;48.112;8.616;2023-03-12T08:15:04;10.00;;;3.10;;
27744;SDS011;61387;48.112;8.616;2023-03-12T08:17:30;5.30;;;2.10;;
27744;SDS011;61387;48.112;8.616;2023-03-12T08:19:56;5.33;;;2.73;;
27744;SDS011;61387;48.112;8.616;2023-03-12T08:22:21;3.00;;;1.90;;
27744;SDS011;61387;48.112;8.616;2023-03-12T08:24:47;5.37;;;2.57;;
27744;SDS011;61387;48.112;8.616;2023-03-12T08:27:13;4.17;;;2.20;;
27744;SDS011;61387;48.112;8.616;2023-03-12T08:29:39;2.60;;;1.83;;
27744;SDS011;61387;48.112;8.616;2023-03-12T08:32:05;4.07;;;2.03;;
27744;SDS011;61387;48.112;8.616;2023-03-12T08:34:32;3.17;;;1.33;;
27744;SDS011;61387;48.112;8.616;2023-03-12T08:36:58;3.33;;;2.03;;
27744;SDS011;61387;48.112;8.616;2023-03-12T08:39:24;6.67;;;2.87;;
27744;SDS011;61387;48.112;8.616;2023-03-12T08:41:50;7.33;;;3.73;;
27744;SDS011;61387;48.112;8.616;2023-03-12T08:44:19;3.17;;;1.60;;
27744;SDS011;61387;48.112;8.616;2023-03-12T08:46:45;2.80;;;1.60;;
27744;SDS011;61387;48.112;8.616;2023-03-12T08:49:11;3.23;;;1.90;;
27744;SDS011;61387;48.112;8.616;2023-03-12T08:51:37;3.97;;;2.20;;
27744;SDS011;61387;48.112;8.616;2023-03-12T08:54:03;4.37;;;2.07;;
27744;SDS011;61387;48.112;8.616;2023-03-12T08:56:29;5.87;;;4.47;;
27744;SDS011;61387;48.112;8.616;2023-03-12T08:58:56;2.83;;;1.80;;
27744;SDS011;61387;48.112;8.616;2023-03-12T09:01:22;3.27;;;2.07;;
27744;SDS011;61387;48.112;8.616;2023-03-12T09:03:48;2.10;;;1.10;;
27744;SDS011;61387;48.112;8.616;2023-03-12T09:06:16;2.77;;;1.47;;
27744;SDS011;61387;48.112;8.616;2023-03-12T09:08:43;2.83;;;1.67;;
27744;SDS011;61387;48.112;8.616;2023-03-12T09:11:10;5.30;;;1.83;;
27744;SDS011;61387;48.112;8.616;2023-03-12T09:13:37;4.47;;;1.30;;
27744;SDS011;61387;48.112;8.616;2023-03-12T09:16:03;4.60;;;2.00;;
27744;SDS011;61387;48.112;8.616;2023-03-12T09:18:29;4.53;;;2.33;;
27744;SDS011;61387;48.112;8.616;2023-03-12T09:20:56;3.03;;;0.93;;
27744;SDS011;61387;48.112;8.616;2023-03-12T09:23:22;2.57;;;1.00;;
27744;SDS011;61387;48.112;8.616;2023-03-12T09:25:49;4.97;;;1.03;;
27744;SDS011;61387;48.112;8.616;2023-03-12T09:28:15;2.83;;;1.10;;
27744;SDS011;61387;48.112;8.616;2023-03-12T09:30:41;5.23;;;1.47;;
27744;SDS011;61387;48.112;8.616;2023-03-12T09:33:07;4.73;;;1.47;;
27744;SDS011;61387;48.112;8.616;2023-03-12T09:35:33;5.20;;;1.30;;
27744;SDS011;61387;48.112;8.616;2023-03-12T09:37:58;3.40;;;1.27;;
27744;SDS011;61387;48.112;8.616;2023-03-12T09:40:24;6.53;;;1.57;;
27744;SDS011;61387;48.112;8.616;2023-03-12T09:43:01;6.50;;;2.00;;
27744;SDS011;61387;48.112;8.616;2023-03-12T09:45:31;5.37;;;1.90;;
27744;SDS011;61387;48.112;8.616;2023-03-12T09:48:05;3.63;;;1.00;;
27744;SDS011;61387;48.112;8.616;2023-03-12T09:50:38;7.73;;;2.43;;
27744;SDS011;61387;48.112;8.616;2023-03-12T09:55:55;4.93;;;1.70;;
27744;SDS011;61387;48.112;8.616;2023-03-12T10:01:38;4.97;;;1.37;;
27744;SDS011;61387;48.112;8.616;2023-03-12T10:07:00;4.87;;;1.33;;
27744;SDS011;61387;48.112;8.616;2023-03-12T10:15:21;6.60;;;2.07;;
27744;SDS011;61387;48.112;8.616;2023-03-12T10:20:45;6.47;;;2.27;;
27744;SDS011;61387;48.112;8.616;2023-03-12T10:28:48;3.63;;;1.00;;
27744;SDS011;61387;48.112;8.616;2023-03-12T10:31:22;2.93;;;0.83;;
27744;SDS011;61387;48.112;8.616;2023-03-12T10:33:55;5.27;;;1.23;;
27744;SDS011;61387;48.112;8.616;2023-03-12T10:36:24;3.87;;;0.93;;
27744;SDS011;61387;48.112;8.616;2023-03-12T10:39:00;3.70;;;1.13;;
27744;SDS011;61387;48.112;8.616;2023-03-12T10:41:30;5.07;;;1.20;;
27744;SDS011;61387;48.112;8.616;2023-03-12T10:43:58;5.00;;;2.00;;
27744;SDS011;61387;48.112;8.616;2023-03-12T10:46:37;1.47;;;0.83;;
27744;SDS011;61387;48.112;8.616;2023-03-12T10:49:26;3.07;;;0.87;;
27744;SDS011;61387;48.112;8.616;2023-03-12T10:54:37;8.50;;;2.00;;
27744;SDS011;61387;48.112;8.616;2023-03-12T10:57:05;3.77;;;0.87;;
27744;SDS011;61387;48.112;8.616;2023-03-12T10:59:33;2.53;;;1.10;;
27744;SDS011;61387;48.112;8.616;2023-03-12T11:02:00;4.57;;;1.23;;
27744;SDS011;61387;48.112;8.616;2023-03-12T11:04:28;4.30;;;1.30;;
27744;SDS011;61387;48.112;8.616;2023-03-12T11:07:03;2.90;;;1.23;;
27744;SDS011;61387;48.112;8.616;2023-03-12T11:10:13;7.57;;;1.37;;
27744;SDS011;61387;48.112;8.616;2023-03-12T11:12:39;3.87;;;0.90;;
27744;SDS011;61387;48.112;8.616;2023-03-12T11:15:27;5.63;;;1.27;;
27744;SDS011;61387;48.112;8.616;2023-03-12T11:23:33;7.93;;;3.60;;
27744;SDS011;61387;48.112;8.616;2023-03-12T11:26:00;3.60;;;1.50;;
27744;SDS011;61387;48.112;8.616;2023-03-12T11:28:36;4.37;;;0.93;;
27744;SDS011;61387;48.112;8.616;2023-03-12T11:31:06;6.47;;;2.10;;
27744;SDS011;61387;48.112;8.616;2023-03-12T11:33:37;3.60;;;1.40;;
27744;SDS011;61387;48.112;8.616;2023-03-12T11:38:53;4.00;;;1.30;;
27744;SDS011;61387;48.112;8.616;2023-03-12T11:44:23;6.50;;;2.00;;
27744;SDS011;61387;48.112;8.616;2023-03-12T11:47:04;5.43;;;1.47;;
27744;SDS011;61387;48.112;8.616;2023-03-12T11:49:57;4.97;;;1.03;;
27744;SDS011;61387;48.112;8.616;2023-03-12T11:52:54;4.37;;;1.23;;
27744;SDS011;61387;48.112;8.616;2023-03-12T12:01:05;6.33;;;1.40;;
27744;SDS011;61387;48.112;8.616;2023-03-12T12:03:40;4.93;;;1.40;;
27744;SDS011;61387;48.112;8.616;2023-03-12T12:06:39;5.60;;;1.37;;
27744;SDS011;61387;48.112;8.616;2023-03-12T12:09:17;3.63;;;0.90;;
27744;SDS011;61387;48.112;8.616;2023-03-12T12:12:08;4.70;;;1.47;;
27744;SDS011;61387;48.112;8.616;2023-03-12T12:23:16;5.10;;;1.17;;
27744;SDS011;61387;48.112;8.616;2023-03-12T12:31:25;5.70;;;1.33;;
27744;SDS011;61387;48.112;8.616;2023-03-12T12:34:00;2.80;;;1.03;;
27744;SDS011;61387;48.112;8.616;2023-03-12T12:36:50;4.03;;;1.33;;
27744;SDS011;61387;48.112;8.616;2023-03-12T12:39:37;5.03;;;1.43;;
27744;SDS011;61387;48.112;8.616;2023-03-12T12:42:05;3.47;;;1.00;;
27744;SDS011;61387;48.112;8.616;2023-03-12T12:44:40;3.80;;;1.40;;
27744;SDS011;61387;48.112;8.616;2023-03-12T12:47:11;3.93;;;1.10;;
27744;SDS011;61387;48.112;8.616;2023-03-12T12:49:48;3.27;;;1.20;;
27744;SDS011;61387;48.112;8.616;2023-03-12T12:52:18;2.80;;;1.00;;
27744;SDS011;61387;48.112;8.616;2023-03-12T12:57:41;6.73;;;1.87;;
27744;SDS011;61387;48.112;8.616;2023-03-12T13:00:47;4.07;;;1.57;;
27744;SDS011;61387;48.112;8.616;2023-03-12T13:03:16;4.10;;;1.70;;
27744;SDS011;61387;48.112;8.616;2023-03-12T13:06:01;4.83;;;2.10;;
27744;SDS011;61387;48.112;8.616;2023-03-12T13:11:01;7.07;;;1.40;;
27744;SDS011;61387;48.112;8.616;2023-03-12T13:13:29;5.87;;;2.07;;
27744;SDS011;61387;48.112;8.616;2023-03-12T13:19:02;3.57;;;1.30;;
27744;SDS011;61387;48.112;8.616;2023-03-12T13:21:39;4.17;;;1.33;;
27744;SDS011;61387;48.112;8.616;2023-03-12T13:29:47;3.77;;;1.57;;
27744;SDS011;61387;48.112;8.616;2023-03-12T13:48:22;6.97;;;2.00;;
27744;SDS011;61387;48.112;8.616;2023-03-12T13:50:56;4.00;;;1.50;;
27744;SDS011;61387;48.112;8.616;2023-03-12T13:53:26;7.37;;;2.17;;
27744;SDS011;61387;48.112;8.616;2023-03-12T13:58:42;4.93;;;2.00;;
27744;SDS011;61387;48.112;8.616;2023-03-12T14:01:18;4.87;;;2.13;;
27744;SDS011;61387;48.112;8.616;2023-03-12T14:03:51;5.37;;;1.60;;
27744;SDS011;61387;48.112;8.616;2023-03-12T14:06:21;4.73;;;1.40;;
27744;SDS011;61387;48.112;8.616;2023-03-12T14:17:22;4.90;;;1.87;;
27744;SDS011;61387;48.112;8.616;2023-03-12T14:22:30;3.33;;;1.10;;
27744;SDS011;61387;48.112;8.616;2023-03-12T14:25:00;4.50;;;1.27;;
27744;SDS011;61387;48.112;8.616;2023-03-12T14:27:31;4.10;;;1.30;;
27744;SDS011;61387;48.112;8.616;2023-03-12T14:30:03;5.97;;;1.40;;
27744;SDS011;61387;48.112;8.616;2023-03-12T14:32:44;6.67;;;1.63;;
27744;SDS011;61387;48.112;8.616;2023-03-12T14:35:19;4.43;;;1.63;;
27744;SDS011;61387;48.112;8.616;2023-03-12T14:37:55;8.30;;;1.60;;
27744;SDS011;61387;48.112;8.616;2023-03-12T14:43:17;5.37;;;1.57;;
27744;SDS011;61387;48.112;8.616;2023-03-12T14:45:44;3.53;;;1.33;;
27744;SDS011;61387;48.112;8.616;2023-03-12T14:48:10;5.03;;;1.40;;
27744;SDS011;61387;48.112;8.616;2023-03-12T14:50:37;5.80;;;1.40;;
27744;SDS011;61387;48.112;8.616;2023-03-12T14:53:37;7.50;;;1.80;;
27744;SDS011;61387;48.112;8.616;2023-03-12T14:58:43;2.97;;;1.43;;
27744;SDS011;61387;48.112;8.616;2023-03-12T15:01:18;4.57;;;2.00;;
27744;SDS011;61387;48.112;8.616;2023-03-12T15:03:47;3.70;;;2.00;;
27744;SDS011;61387;48.112;8.616;2023-03-12T15:06:29;6.17;;;2.00;;
27744;SDS011;61387;48.112;8.616;2023-03-12T15:09:13;7.87;;;2.33;;
27744;SDS011;61387;48.112;8.616;2023-03-12T15:11:42;7.37;;;1.90;;
27744;SDS011;61387;48.112;8.616;2023-03-12T15:14:15;7.73;;;2.00;;
27744;SDS011;61387;48.112;8.616;2023-03-12T15:16:41;4.63;;;1.50;;
27744;SDS011;61387;48.112;8.616;2023-03-12T15:19:11;6.20;;;1.60;;
27744;SDS011;61387;48.112;8.616;2023-03-12T15:21:37;8.83;;;2.10;;
27744;SDS011;61387;48.112;8.616;2023-03-12T15:24:04;6.30;;;2.15;;
27744;SDS011;61387;48.112;8.616;2023-03-12T15:26:31;4.83;;;1.90;;
27744;SDS011;61387;48.112;8.616;2023-03-12T15:29:24;6.40;;;1.70;;
27744;SDS011;61387;48.112;8.616;2023-03-12T15:31:59;8.50;;;2.10;;
27744;SDS011;61387;48.112;8.616;2023-03-12T15:34:26;7.43;;;1.97;;
27744;SDS011;61387;48.112;8.616;2023-03-12T15:36:52;5.93;;;2.23;;
27744;SDS011;61387;48.112;8.616;2023-03-12T15:39:31;8.80;;;3.00;;
27744;SDS011;61387;48.112;8.616;2023-03-12T15:42:08;8.97;;;2.47;;
27744;SDS011;61387;48.112;8.616;2023-03-12T15:44:46;7.23;;;2.30;;
27744;SDS011;61387;48.112;8.616;2023-03-12T15:47:16;8.97;;;2.60;;
27744;SDS011;61387;48.112;8.616;2023-03-12T15:49:47;6.40;;;2.73;;
27744;SDS011;61387;48.112;8.616;2023-03-12T15:57:32;7.53;;;2.13;;
27744;SDS011;61387;48.112;8.616;2023-03-12T16:02:37;8.40;;;1.80;;
27744;SDS011;61387;48.112;8.616;2023-03-12T16:05:04;8.03;;;2.10;;
27744;SDS011;61387;48.112;8.616;2023-03-12T16:07:30;9.77;;;2.00;;
27744;SDS011;61387;48.112;8.616;2023-03-12T16:09:56;5.77;;;1.90;;
27744;SDS011;61387;48.112;8.616;2023-03-12T16:12:21;5.37;;;1.60;;
27744;SDS011;61387;48.112;8.616;2023-03-12T16:14:47;6.83;;;2.07;;
27744;SDS011;61387;48.112;8.616;2023-03-12T16:17:14;9.33;;;2.90;;
27744;SDS011;61387;48.112;8.616;2023-03-12T16:19:43;9.50;;;3.00;;
27744;SDS011;61387;48.112;8.616;2023-03-12T16:22:09;9.27;;;2.60;;
27744;SDS011;61387;48.112;8.616;2023-03-12T16:24:35;7.90;;;2.37;;
27744;SDS011;61387;48.112;8.616;2023-03-12T16:27:01;8.25;;;3.15;;
27744;SDS011;61387;48.112;8.616;2023-03-12T16:29:32;9.50;;;2.50;;
27744;SDS011;61387;48.112;8.616;2023-03-12T16:31:59;5.20;;;1.70;;
27744;SDS011;61387;48.112;8.616;2023-03-12T16:34:25;7.97;;;2.20;;
27744;SDS011;61387;48.112;8.616;2023-03-12T16:36:51;11.77;;;3.10;;
27744;SDS011;61387;48.112;8.616;2023-03-12T16:39:17;7.33;;;3.13;;
27744;SDS011;61387;48.112;8.616;2023-03-12T16:41:43;9.43;;;2.30;;
27744;SDS011;61387;48.112;8.616;2023-03-12T16:44:11;19.03;;;9.03;;
27744;SDS011;61387;48.112;8.616;2023-03-12T16:46:41;13.57;;;6.60;;
27744;SDS011;61387;48.112;8.616;2023-03-12T16:49:11;9.10;;;3.33;;
27744;SDS011;61387;48.112;8.616;2023-03-12T16:51:39;11.63;;;4.50;;
27744;SDS011;61387;48.112;8.616;2023-03-12T16:54:05;9.50;;;4.23;;
27744;SDS011;61387;48.112;8.616;2023-03-12T16:56:31;10.60;;;4.37;;